Time;durP1;ratioP1;P1;durP2;ratioP2;P2;SDS_P1;SDS_P2;PMS_P1;PMS_P2;Temp;Humidity;BMP_temperature;BMP_pressure;BME280_temperature;BME280_humidity;BME280_pressure;Samples;Min_cycle;Max_cycle;Signal;HPM_P1;HPM_P2
2022/07/24 00:00:21;;;;;;;8.68;4.07;;;29.40;38.90;;;;;;6276289;28;20392;-75
2022/07/24 00:03:22;;;;;;;4.93;3.78;;;29.20;39.00;;;;;;6273854;28;20029;-75
2022/07/24 00:06:23;;;;;;;7.20;4.00;;;29.10;39.20;;;;;;6273156;28;20068;-75
2022/07/24 00:09:23;;;;;;;8.73;3.58;;;28.90;39.20;;;;;;6272142;28;20029;-75
2022/07/24 00:12:24;;;;;;;8.40;3.83;;;28.80;39.40;;;;;;6272733;28;20070;-76
2022/07/24 00:15:25;;;;;;;6.57;3.97;;;28.70;39.40;;;;;;6272365;28;20053;-74
2022/07/24 00:18:26;;;;;;;6.03;3.90;;;28.60;39.60;;;;;;6272147;28;20052;-75
2022/07/24 00:21:27;;;;;;;5.00;3.50;;;28.80;39.60;;;;;;6274135;28;20059;-75
2022/07/24 00:24:29;;;;;;;7.53;3.70;;;28.80;39.20;;;;;;6274333;28;20040;-75
2022/07/24 00:27:29;;;;;;;4.50;3.35;;;28.90;39.00;;;;;;6274598;28;20074;-76
2022/07/24 00:30:30;;;;;;;4.82;3.67;;;29.00;38.90;;;;;;6273537;28;20397;-78
2022/07/24 00:33:31;;;;;;;8.50;3.53;;;29.00;38.70;;;;;;6274958;28;20369;-74
2022/07/24 00:36:33;;;;;;;6.55;3.53;;;29.00;38.70;;;;;;6274299;28;20033;-75
2022/07/24 00:39:34;;;;;;;5.13;4.03;;;29.10;38.70;;;;;;6274118;28;20037;-75
2022/07/24 00:42:35;;;;;;;4.78;3.88;;;29.10;38.50;;;;;;6274750;28;20454;-75
2022/07/24 00:45:36;;;;;;;6.53;3.47;;;29.00;38.30;;;;;;6272904;28;20028;-75
2022/07/24 00:48:37;;;;;;;4.53;3.20;;;29.00;38.50;;;;;;6274856;28;20024;-76
2022/07/24 00:51:41;;;;;;;5.20;3.60;;;28.90;38.50;;;;;;6272402;28;20028;-75
2022/07/24 00:54:41;;;;;;;4.43;3.30;;;28.90;38.50;;;;;;6273861;28;20415;-75
2022/07/24 00:57:45;;;;;;;11.57;3.78;;;28.80;38.40;;;;;;6271999;28;20036;-76
2022/07/24 01:00:46;;;;;;;5.38;3.85;;;28.70;38.60;;;;;;6272835;28;20086;-76
2022/07/24 01:03:47;;;;;;;5.28;3.85;;;28.60;39.30;;;;;;6274974;28;20449;-75
2022/07/24 01:06:48;;;;;;;4.85;3.70;;;28.50;38.70;;;;;;6254427;28;20106;-76
2022/07/24 01:09:50;;;;;;;8.93;3.78;;;28.40;38.80;;;;;;6273045;28;20033;-75
2022/07/24 01:12:51;;;;;;;10.02;3.78;;;28.30;39.00;;;;;;6270765;28;20036;-75
2022/07/24 01:15:52;;;;;;;4.95;3.63;;;28.10;39.20;;;;;;6255678;28;20465;-75
2022/07/24 01:18:53;;;;;;;8.95;3.92;;;28.00;39.40;;;;;;6271825;28;20028;-75
2022/07/24 01:21:54;;;;;;;4.70;3.65;;;27.80;39.60;;;;;;6273755;28;20807;-75
2022/07/24 01:24:55;;;;;;;9.85;4.32;;;27.80;39.90;;;;;;6272595;28;20037;-76
2022/07/24 01:27:57;;;;;;;5.80;4.10;;;27.70;40.10;;;;;;6273659;28;20057;-74
2022/07/24 01:30:58;;;;;;;5.97;3.67;;;27.60;40.20;;;;;;6272426;28;20031;-75
2022/07/24 01:33:59;;;;;;;4.65;3.58;;;27.60;40.30;;;;;;6273426;28;20029;-75
2022/07/24 01:37:00;;;;;;;4.78;3.55;;;27.50;40.40;;;;;;6271618;28;20040;-75
2022/07/24 01:40:01;;;;;;;8.57;3.40;;;27.50;40.60;;;;;;6273306;28;20028;-75
2022/07/24 01:43:02;;;;;;;5.65;3.78;;;27.40;40.50;;;;;;6288133;28;20047;-74
2022/07/24 01:46:03;;;;;;;5.25;3.70;;;27.40;40.40;;;;;;6272834;28;20170;-74
2022/07/24 01:49:04;;;;;;;8.27;3.92;;;27.30;41.00;;;;;;6272865;28;20033;-75
2022/07/24 01:52:05;;;;;;;10.55;3.88;;;27.30;41.20;;;;;;6287468;28;20048;-75
2022/07/24 01:55:07;;;;;;;8.20;3.83;;;27.40;40.60;;;;;;6256704;28;20021;-75
2022/07/24 01:58:08;;;;;;;7.65;3.78;;;27.40;40.30;;;;;;6270669;28;20108;-74
2022/07/24 02:01:09;;;;;;;6.38;3.83;;;27.40;40.20;;;;;;6276827;28;20357;-75
2022/07/24 02:04:10;;;;;;;6.55;3.80;;;27.30;40.20;;;;;;6271051;28;20036;-75
2022/07/24 02:07:10;;;;;;;5.90;3.35;;;27.20;40.20;;;;;;6272223;28;20032;-75
2022/07/24 02:10:13;;;;;;;5.93;3.53;;;27.20;40.30;;;;;;6274864;28;20029;-74
2022/07/24 02:13:14;;;;;;;7.63;3.55;;;27.20;40.50;;;;;;6275895;28;20025;-75
2022/07/24 02:16:15;;;;;;;5.18;4.05;;;27.10;40.60;;;;;;6277055;28;20040;-75
2022/07/24 02:19:16;;;;;;;7.15;3.60;;;27.10;40.80;;;;;;6277060;28;20037;-75
2022/07/24 02:22:17;;;;;;;7.82;3.70;;;27.10;40.90;;;;;;6277034;28;20442;-76
2022/07/24 02:25:18;;;;;;;6.00;3.97;;;27.00;41.50;;;;;;6277551;28;20033;-76
2022/07/24 02:28:19;;;;;;;8.43;4.03;;;27.00;41.00;;;;;;6276348;28;20084;-76
2022/07/24 02:31:20;;;;;;;6.30;3.67;;;27.00;41.10;;;;;;6275596;28;20457;-74
2022/07/24 02:34:21;;;;;;;6.18;3.65;;;26.90;41.10;;;;;;6278004;28;20406;-75
2022/07/24 02:37:21;;;;;;;5.32;3.70;;;26.90;41.30;;;;;;6275743;28;20103;-75
2022/07/24 02:40:22;;;;;;;5.53;3.75;;;26.90;41.40;;;;;;6276361;28;20043;-75
2022/07/24 02:43:23;;;;;;;6.20;4.05;;;26.90;41.50;;;;;;6280097;28;20032;-76
2022/07/24 02:46:24;;;;;;;7.80;4.07;;;26.80;41.60;;;;;;6276163;28;20412;-74
2022/07/24 02:49:25;;;;;;;7.32;4.03;;;26.80;41.60;;;;;;6275943;28;20104;-76
2022/07/24 02:52:26;;;;;;;6.47;3.75;;;26.80;41.70;;;;;;6268790;28;20041;-76
2022/07/24 02:55:28;;;;;;;8.55;4.50;;;26.80;41.90;;;;;;6269216;28;20032;-75
2022/07/24 02:58:28;;;;;;;8.30;4.15;;;26.80;42.00;;;;;;6266643;28;20056;-75
2022/07/24 03:01:29;;;;;;;6.40;4.32;;;26.70;42.20;;;;;;6267864;28;20025;-75
2022/07/24 03:04:30;;;;;;;6.13;4.22;;;26.70;42.40;;;;;;6272757;28;20035;-75
2022/07/24 03:07:32;;;;;;;7.43;3.90;;;26.70;42.50;;;;;;6269356;28;20056;-74
2022/07/24 03:10:33;;;;;;;4.93;3.72;;;26.60;42.40;;;;;;6267962;28;20037;-74
2022/07/24 03:13:34;;;;;;;8.27;3.85;;;26.60;42.50;;;;;;6268822;28;20075;-74
2022/07/24 03:16:34;;;;;;;8.40;4.00;;;26.60;43.40;;;;;;6268313;28;20044;-75
2022/07/24 03:19:35;;;;;;;8.98;4.13;;;26.50;43.00;;;;;;6268021;28;20097;-76
2022/07/24 03:22:36;;;;;;;9.10;4.80;;;26.60;43.20;;;;;;6268561;28;20108;-75
2022/07/24 03:25:37;;;;;;;7.20;4.00;;;26.80;43.10;;;;;;6269234;28;20029;-75
2022/07/24 03:28:38;;;;;;;8.00;4.43;;;26.90;43.00;;;;;;6268892;28;20525;-75
2022/07/24 03:31:39;;;;;;;6.45;4.22;;;26.80;42.90;;;;;;6267785;28;20036;-76
2022/07/24 03:34:40;;;;;;;8.23;4.15;;;26.80;43.00;;;;;;6269017;28;20021;-75
2022/07/24 03:37:41;;;;;;;8.55;4.20;;;26.70;43.00;;;;;;6268710;28;20252;-75
2022/07/24 03:40:42;;;;;;;5.68;4.10;;;26.60;43.10;;;;;;6269498;28;20020;-74
2022/07/24 03:43:43;;;;;;;8.13;4.20;;;26.60;43.30;;;;;;6284289;28;20610;-75
2022/07/24 03:46:44;;;;;;;5.88;4.30;;;26.70;43.30;;;;;;6265919;28;20049;-75
2022/07/24 03:49:44;;;;;;;8.18;4.28;;;26.80;43.30;;;;;;6267204;28;20438;-75
2022/07/24 03:52:45;;;;;;;6.53;4.05;;;26.90;43.40;;;;;;6265779;28;20051;-75
2022/07/24 03:55:46;;;;;;;7.32;3.63;;;27.00;43.10;;;;;;6266964;28;21516;-75
2022/07/24 03:58:47;;;;;;;15.23;4.72;;;27.10;42.90;;;;;;6265116;28;20112;-75
2022/07/24 04:01:50;;;;;;;8.10;4.07;;;27.20;42.80;;;;;;6266322;28;21651;-78
2022/07/24 04:04:51;;;;;;;6.28;4.70;;;27.30;42.60;;;;;;6266099;28;20036;-74
2022/07/24 04:07:52;;;;;;;6.47;4.53;;;27.40;42.60;;;;;;6268220;28;20381;-75
2022/07/24 04:10:56;;;;;;;6.22;4.47;;;27.30;42.40;;;;;;6267941;28;20029;-76
2022/07/24 04:13:57;;;;;;;8.70;4.43;;;27.30;42.60;;;;;;6265643;28;20057;-76
2022/07/24 04:16:58;;;;;;;8.02;4.88;;;27.30;42.70;;;;;;6266445;28;20024;-75
2022/07/24 04:19:59;;;;;;;7.57;5.25;;;27.30;42.60;;;;;;6265567;28;20040;-75
2022/07/24 04:23:00;;;;;;;10.07;5.68;;;27.20;42.90;;;;;;6268722;28;20079;-75
2022/07/24 04:26:01;;;;;;;9.32;3.95;;;27.20;43.30;;;;;;6267516;28;20637;-75
2022/07/24 04:29:02;;;;;;;7.65;4.40;;;27.10;43.40;;;;;;6266118;28;20031;-75
2022/07/24 04:32:03;;;;;;;6.88;4.50;;;27.00;43.30;;;;;;6267583;28;20397;-75
2022/07/24 04:35:05;;;;;;;7.63;4.28;;;26.90;43.40;;;;;;6266664;28;20447;-75
2022/07/24 04:38:06;;;;;;;8.15;4.50;;;26.80;43.70;;;;;;6267192;28;20037;-75
2022/07/24 04:41:07;;;;;;;11.25;4.55;;;26.70;43.90;;;;;;6267025;28;20477;-75
2022/07/24 04:44:08;;;;;;;9.13;4.50;;;26.80;44.10;;;;;;6267165;28;20369;-76
2022/07/24 04:47:09;;;;;;;9.20;4.25;;;26.90;44.00;;;;;;6270237;28;20025;-75
2022/07/24 04:50:10;;;;;;;9.10;4.78;;;27.00;43.90;;;;;;6266179;28;21578;-75
2022/07/24 04:53:11;;;;;;;6.68;4.93;;;27.10;43.90;;;;;;6266036;28;20041;-75
2022/07/24 04:56:13;;;;;;;7.47;4.30;;;27.00;43.70;;;;;;6266092;28;20028;-75
2022/07/24 04:59:14;;;;;;;6.40;4.57;;;27.00;43.80;;;;;;6263907;28;20029;-75
2022/07/24 05:02:15;;;;;;;6.25;4.30;;;26.90;43.90;;;;;;6266570;28;20086;-75
2022/07/24 05:05:16;;;;;;;6.65;4.70;;;26.70;44.00;;;;;;6265739;28;20549;-75
2022/07/24 05:08:17;;;;;;;9.57;4.95;;;26.60;44.20;;;;;;6266121;28;20040;-75
2022/07/24 05:11:17;;;;;;;6.30;4.38;;;26.50;44.40;;;;;;6266275;28;20040;-75
2022/07/24 05:14:18;;;;;;;15.95;5.10;;;26.50;44.70;;;;;;6265976;28;20442;-74
2022/07/24 05:17:20;;;;;;;9.13;4.68;;;26.50;44.80;;;;;;6266168;28;20442;-74
2022/07/24 05:20:20;;;;;;;10.43;5.53;;;26.70;44.80;;;;;;6266769;28;20029;-74
2022/07/24 05:23:21;;;;;;;7.88;4.90;;;26.70;44.80;;;;;;6265943;28;20040;-75
2022/07/24 05:26:22;;;;;;;7.88;5.28;;;26.70;45.30;;;;;;6267317;28;20048;-75
2022/07/24 05:29:23;;;;;;;10.85;5.55;;;26.60;45.50;;;;;;6265185;28;20032;-75
2022/07/24 05:32:24;;;;;;;6.75;4.82;;;26.50;45.80;;;;;;6265531;28;20052;-75
2022/07/24 05:35:25;;;;;;;9.75;5.38;;;26.50;46.00;;;;;;6265379;28;20032;-75
2022/07/24 05:38:26;;;;;;;6.80;5.03;;;26.50;46.10;;;;;;6248277;28;20575;-75
2022/07/24 05:41:27;;;;;;;11.32;5.43;;;26.40;46.20;;;;;;6263402;28;20040;-74
2022/07/24 05:44:28;;;;;;;7.97;5.85;;;26.40;46.40;;;;;;6263809;28;20060;-80
2022/07/24 05:47:34;;;;;;;8.68;5.72;;;26.40;46.50;;;;;;6262049;28;20060;-76
2022/07/24 05:50:35;;;;;;;9.07;5.45;;;26.40;46.60;;;;;;6263529;28;20025;-75
2022/07/24 05:53:36;;;;;;;15.10;5.68;;;26.40;46.70;;;;;;6262876;28;20041;-75
2022/07/24 05:56:37;;;;;;;8.18;5.68;;;26.50;46.90;;;;;;6263204;28;20431;-75
2022/07/24 05:59:38;;;;;;;7.70;5.07;;;26.50;47.00;;;;;;6253777;28;20462;-75
2022/07/24 06:02:38;;;;;;;6.70;5.20;;;26.60;47.10;;;;;;6271725;28;20564;-75
2022/07/24 06:05:39;;;;;;;11.85;4.93;;;26.60;47.60;;;;;;6270169;28;20041;-76
2022/07/24 06:08:40;;;;;;;9.85;6.05;;;26.70;46.90;;;;;;6271986;28;20044;-76
2022/07/24 06:11:41;;;;;;;9.73;5.85;;;26.80;46.90;;;;;;6258265;28;20115;-74
2022/07/24 06:14:42;;;;;;;10.18;6.35;;;26.80;46.70;;;;;;6247027;28;20358;-76
2022/07/24 06:17:44;;;;;;;12.85;5.65;;;26.90;46.80;;;;;;6256198;28;20409;-76
2022/07/24 06:20:45;;;;;;;11.80;5.88;;;26.90;46.80;;;;;;6271833;28;20151;-75
2022/07/24 06:23:45;;;;;;;10.02;5.78;;;26.90;46.70;;;;;;6285091;28;20041;-76
2022/07/24 06:26:46;;;;;;;8.38;5.82;;;27.00;46.70;;;;;;6270966;28;20120;-76
2022/07/24 06:29:47;;;;;;;8.15;5.63;;;27.00;46.50;;;;;;6272559;28;20037;-75
2022/07/24 06:32:49;;;;;;;14.00;5.55;;;27.00;46.40;;;;;;6271142;28;20033;-75
2022/07/24 06:35:50;;;;;;;9.73;5.43;;;27.10;46.40;;;;;;6269834;28;20422;-74
2022/07/24 06:38:51;;;;;;;12.45;5.25;;;27.10;46.30;;;;;;6270025;28;20036;-76
2022/07/24 06:41:53;;;;;;;12.88;5.82;;;27.10;46.10;;;;;;6277844;28;20067;-77
2022/07/24 06:45:01;;;;;;;9.20;5.35;;;27.20;46.10;;;;;;6264116;28;20025;-76
2022/07/24 06:48:03;;;;;;;7.63;5.00;;;27.20;45.90;;;;;;6269398;28;20044;-76
2022/07/24 06:51:04;;;;;;;6.65;5.05;;;27.30;45.80;;;;;;6244936;28;20057;-73
2022/07/24 06:54:05;;;;;;;10.10;5.70;;;27.40;45.50;;;;;;6275204;28;20517;-72
2022/07/24 06:57:06;;;;;;;11.50;6.10;;;27.50;45.30;;;;;;6258526;28;20031;-76
2022/07/24 07:00:09;;;;;;;7.97;4.95;;;27.70;45.10;;;;;;6275965;28;20028;-76
2022/07/24 07:03:09;;;;;;;8.77;5.55;;;27.70;44.80;;;;;;6277395;28;20110;-76
2022/07/24 07:06:10;;;;;;;9.27;5.53;;;27.90;44.70;;;;;;6276183;28;20108;-77
2022/07/24 07:09:12;;;;;;;8.75;5.25;;;28.00;44.50;;;;;;6274388;28;20044;-76
2022/07/24 07:12:13;;;;;;;9.77;5.82;;;28.10;44.40;;;;;;6287246;28;20031;-76
2022/07/24 07:15:14;;;;;;;9.18;5.90;;;28.30;44.20;;;;;;6285200;28;20432;-76
2022/07/24 07:18:15;;;;;;;11.00;5.70;;;28.40;43.90;;;;;;6277019;28;20029;-76
2022/07/24 07:21:15;;;;;;;16.48;5.28;;;28.50;43.80;;;;;;6275425;28;20077;-76
2022/07/24 07:24:16;;;;;;;15.65;5.60;;;28.60;43.60;;;;;;6276865;28;20162;-75
2022/07/24 07:27:17;;;;;;;8.15;5.55;;;28.60;43.40;;;;;;6292417;28;20044;-76
2022/07/24 07:30:18;;;;;;;7.97;5.28;;;28.70;43.40;;;;;;6274541;28;20013;-76
2022/07/24 07:33:19;;;;;;;8.18;5.50;;;28.80;43.30;;;;;;6274633;28;20453;-75
2022/07/24 07:36:20;;;;;;;8.75;5.78;;;28.80;43.10;;;;;;6273591;28;20134;-75
2022/07/24 07:39:21;;;;;;;13.32;5.85;;;29.00;43.00;;;;;;6256947;28;20083;-76
2022/07/24 07:42:22;;;;;;;12.10;6.07;;;29.00;42.80;;;;;;6272443;28;20036;-76
2022/07/24 07:45:23;;;;;;;9.75;5.75;;;29.20;42.70;;;;;;6273254;28;20044;-76
2022/07/24 07:48:23;;;;;;;9.57;5.53;;;29.20;42.50;;;;;;6274836;28;20120;-74
2022/07/24 07:51:24;;;;;;;6.97;5.40;;;29.30;42.20;;;;;;6274886;28;20178;-78
2022/07/24 07:54:25;;;;;;;6.93;5.05;;;29.50;42.10;;;;;;6275708;28;20041;-75
2022/07/24 07:57:26;;;;;;;7.20;5.15;;;29.50;41.90;;;;;;6275792;28;20074;-76
2022/07/24 08:00:27;;;;;;;7.43;5.55;;;29.60;41.60;;;;;;6276048;28;20037;-76
2022/07/24 08:03:28;;;;;;;10.45;6.25;;;29.80;41.40;;;;;;6274357;28;20039;-76
2022/07/24 08:06:30;;;;;;;14.05;5.15;;;29.90;41.20;;;;;;6275681;28;20484;-76
2022/07/24 08:09:31;;;;;;;8.10;5.40;;;30.00;40.90;;;;;;6277055;28;20193;-76
2022/07/24 08:12:32;;;;;;;7.45;5.22;;;30.00;40.80;;;;;;6257583;28;20083;-76
2022/07/24 08:15:33;;;;;;;8.60;4.85;;;30.10;40.60;;;;;;6273646;28;20029;-75
2022/07/24 08:18:34;;;;;;;16.20;5.18;;;30.10;40.60;;;;;;6275620;28;20083;-76
2022/07/24 08:21:34;;;;;;;11.90;5.10;;;30.30;40.50;;;;;;6268032;28;20041;-76
2022/07/24 08:24:35;;;;;;;11.77;5.82;;;30.40;40.30;;;;;;6275310;28;20032;-77
2022/07/24 08:27:38;;;;;;;7.40;5.10;;;30.60;40.00;;;;;;6250404;28;20071;-77
2022/07/24 08:30:39;;;;;;;8.32;5.38;;;30.70;39.70;;;;;;6262656;28;20022;-77
2022/07/24 08:33:40;;;;;;;9.35;5.50;;;30.80;39.40;;;;;;6249303;28;20668;-77
2022/07/24 08:36:41;;;;;;;10.18;5.05;;;30.80;39.10;;;;;;6255365;28;20036;-77
2022/07/24 08:39:41;;;;;;;9.88;5.97;;;30.90;38.90;;;;;;6272070;28;20033;-77
2022/07/24 08:42:43;;;;;;;9.68;4.78;;;31.00;38.90;;;;;;6274543;28;20040;-77
2022/07/24 08:45:44;;;;;;;8.75;4.85;;;31.10;38.60;;;;;;6273522;28;20025;-77
2022/07/24 08:48:45;;;;;;;8.45;5.10;;;31.20;38.40;;;;;;6274408;28;20087;-77
2022/07/24 08:51:49;;;;;;;8.73;5.43;;;31.30;38.10;;;;;;6273839;28;20195;-76
2022/07/24 08:54:50;;;;;;;8.07;5.75;;;31.30;38.00;;;;;;6273159;28;20362;-77
2022/07/24 08:57:50;;;;;;;10.18;7.10;;;31.40;37.80;;;;;;6274927;28;20025;-77
2022/07/24 09:00:51;;;;;;;9.93;6.10;;;31.50;37.80;;;;;;6273735;28;20436;-77
2022/07/24 09:03:52;;;;;;;11.55;7.40;;;31.50;37.60;;;;;;6281199;28;20120;-76
2022/07/24 09:06:57;;;;;;;8.90;5.72;;;31.60;37.50;;;;;;6298360;28;20256;-77
2022/07/24 09:10:06;;;;;;;9.07;6.95;;;31.70;37.40;;;;;;6282249;28;20108;-77
2022/07/24 09:13:15;;;;;;;14.18;5.40;;;31.80;37.40;;;;;;6268364;28;20026;-77
2022/07/24 09:16:25;;;;;;;8.90;5.13;;;31.80;37.30;;;;;;6271779;28;20322;-77
2022/07/24 09:19:26;;;;;;;10.00;5.07;;;31.90;37.00;;;;;;6288987;28;20029;-77
2022/07/24 09:22:42;;;;;;;8.70;5.20;;;32.00;36.80;;;;;;6273695;28;20088;-77
2022/07/24 09:25:53;;;;;;;7.72;4.90;;;32.10;36.60;;;;;;6272525;28;20035;-78
2022/07/24 09:28:55;;;;;;;8.52;5.10;;;32.10;36.50;;;;;;6272960;28;20048;-77
2022/07/24 09:32:01;;;;;;;7.30;5.05;;;32.20;36.40;;;;;;6273814;28;20401;-77
2022/07/24 09:35:03;;;;;;;8.43;4.50;;;32.20;36.10;;;;;;6271706;28;20028;-77
2022/07/24 09:38:07;;;;;;;9.18;5.18;;;32.20;35.70;;;;;;6271130;28;20040;-78
2022/07/24 09:41:08;;;;;;;7.72;5.15;;;32.10;35.80;;;;;;6282303;28;20033;-77
2022/07/24 09:44:13;;;;;;;12.32;5.50;;;32.10;35.70;;;;;;6286698;28;20358;-78
2022/07/24 09:47:16;;;;;;;14.18;5.88;;;32.10;35.50;;;;;;6271356;28;20353;-78
2022/07/24 09:50:17;;;;;;;7.20;5.50;;;32.10;35.60;;;;;;6272107;28;20115;-77
2022/07/24 09:53:21;;;;;;;9.93;5.82;;;32.10;35.50;;;;;;6273436;28;20126;-77
2022/07/24 09:56:23;;;;;;;12.57;6.25;;;32.20;35.60;;;;;;6271968;28;20029;-77
2022/07/24 09:59:28;;;;;;;9.10;5.40;;;32.30;35.60;;;;;;6287368;28;20037;-77
2022/07/24 10:02:32;;;;;;;10.40;7.82;;;32.30;35.50;;;;;;6271034;28;20108;-77
2022/07/24 10:05:36;;;;;;;10.27;5.32;;;32.50;35.40;;;;;;6270106;28;20036;-76
2022/07/24 10:08:39;;;;;;;10.35;5.47;;;32.60;35.00;;;;;;6269803;28;20037;-77
2022/07/24 10:11:44;;;;;;;11.75;5.68;;;32.60;34.80;;;;;;6270176;28;20021;-76
2022/07/24 10:14:46;;;;;;;7.80;5.60;;;32.70;34.60;;;;;;6272513;28;20099;-77
2022/07/24 10:17:50;;;;;;;15.90;7.05;;;32.80;34.40;;;;;;6284101;28;20029;-78
2022/07/24 10:21:06;;;;;;;12.98;6.25;;;32.80;34.30;;;;;;6287415;28;20052;-76
2022/07/24 10:24:11;;;;;;;8.70;5.90;;;32.90;34.30;;;;;;6272362;28;20052;-76
2022/07/24 10:27:49;;;;;;;9.05;5.32;;;33.00;34.30;;;;;;6274644;28;20024;-77
2022/07/24 10:30:50;;;;;;;16.30;8.48;;;33.10;34.20;;;;;;6226385;28;20133;-77
2022/07/24 10:33:56;;;;;;;15.27;5.32;;;33.20;33.80;;;;;;6226276;28;20117;-77
2022/07/24 10:37:21;;;;;;;10.50;6.13;;;33.30;33.60;;;;;;6226254;28;20479;-77
2022/07/24 10:40:42;;;;;;;10.38;5.40;;;33.30;33.70;;;;;;6224591;28;20050;-76
2022/07/24 10:44:17;;;;;;;8.00;5.28;;;33.30;33.70;;;;;;6223783;28;20037;-77
2022/07/24 10:47:25;;;;;;;10.70;5.18;;;33.50;33.70;;;;;;6206437;28;20109;-78
2022/07/24 10:51:07;;;;;;;7.47;5.13;;;33.50;33.30;;;;;;6223222;28;20067;-77
2022/07/24 10:54:17;;;;;;;9.50;5.35;;;33.50;33.40;;;;;;6206879;28;20046;-77
2022/07/24 10:57:33;;;;;;;8.85;5.30;;;33.70;33.40;;;;;;6223535;28;20097;-77
2022/07/24 11:00:41;;;;;;;8.55;5.22;;;33.80;33.40;;;;;;6225663;28;20049;-77
2022/07/24 11:03:50;;;;;;;13.10;6.30;;;33.90;33.20;;;;;;6225661;28;20406;-77
2022/07/24 11:06:54;;;;;;;10.60;5.63;;;34.00;32.90;;;;;;6256192;28;20061;-77
2022/07/24 11:10:07;;;;;;;9.60;5.13;;;34.80;31.70;;;;;;6276763;28;20036;-78
2022/07/24 11:13:34;;;;;;;6.85;4.90;;;35.80;30.30;;;;;;6277330;28;20037;-79
2022/07/24 11:16:35;;;;;;;6.95;4.80;;;36.60;29.30;;;;;;6275618;28;20065;-78
2022/07/24 11:19:37;;;;;;;8.02;5.32;;;37.30;28.60;;;;;;6275978;28;20114;-79
2022/07/24 11:22:58;;;;;;;8.55;4.95;;;38.00;27.70;;;;;;6276613;28;20331;-78
2022/07/24 11:26:35;;;;;;;8.95;4.82;;;38.30;27.10;;;;;;6276742;28;20029;-79
2022/07/24 11:29:38;;;;;;;8.43;4.47;;;38.70;26.60;;;;;;6276664;28;20044;-79
2022/07/24 11:32:40;;;;;;;8.73;5.03;;;39.10;26.10;;;;;;6274604;28;20118;-78
2022/07/24 11:35:42;;;;;;;6.78;4.80;;;39.20;25.80;;;;;;6274049;28;20041;-78
2022/07/24 11:38:42;;;;;;;6.32;4.47;;;39.30;25.50;;;;;;6254755;28;20025;-77
2022/07/24 11:41:49;;;;;;;8.00;4.93;;;39.40;25.40;;;;;;6273318;28;20041;-78
2022/07/24 11:44:53;;;;;;;7.87;4.37;;;39.50;25.40;;;;;;6272330;28;20009;-80
2022/07/24 11:47:55;;;;;;;7.70;4.22;;;39.70;25.30;;;;;;6273672;28;20035;-77
2022/07/24 11:51:04;;;;;;;13.85;5.18;;;39.90;25.30;;;;;;6273454;28;20060;-80
2022/07/24 11:54:05;;;;;;;5.25;4.20;;;40.00;25.20;;;;;;6275040;28;20513;-76
2022/07/24 11:57:20;;;;;;;7.68;4.50;;;40.10;25.10;;;;;;6290769;28;20067;-77
2022/07/24 12:00:24;;;;;;;11.65;4.40;;;40.20;25.00;;;;;;6287609;28;20025;-78
2022/07/24 12:03:25;;;;;;;5.32;4.38;;;40.30;24.80;;;;;;6273072;28;20442;-78
2022/07/24 12:06:26;;;;;;;5.70;3.95;;;40.30;24.60;;;;;;6273896;28;20028;-78
2022/07/24 12:09:27;;;;;;;5.40;4.20;;;40.40;24.60;;;;;;6274761;28;20039;-74
2022/07/24 12:12:31;;;;;;;6.63;4.60;;;40.60;24.40;;;;;;6274127;28;20422;-79
2022/07/24 12:15:37;;;;;;;5.95;4.05;;;40.70;24.10;;;;;;6290964;28;20033;-78
2022/07/24 12:18:38;;;;;;;5.88;4.03;;;40.90;23.90;;;;;;6275573;28;20061;-78
2022/07/24 12:21:39;;;;;;;8.07;4.00;;;41.00;23.70;;;;;;6290400;28;20033;-78
2022/07/24 12:24:40;;;;;;;5.05;4.18;;;41.40;23.40;;;;;;6275347;28;20068;-78
2022/07/24 12:27:43;;;;;;;5.28;4.07;;;41.60;23.20;;;;;;6289333;28;20044;-78
2022/07/24 12:30:51;;;;;;;5.57;4.35;;;41.60;23.10;;;;;;6288593;28;20028;-77
2022/07/24 12:33:53;;;;;;;5.05;3.85;;;41.70;23.10;;;;;;6272222;28;20108;-78
2022/07/24 12:36:54;;;;;;;5.40;4.60;;;41.90;23.00;;;;;;6270221;28;20098;-78
2022/07/24 12:39:55;;;;;;;5.60;4.35;;;42.00;22.80;;;;;;6249268;28;20073;-78
2022/07/24 12:43:01;;;;;;;7.05;4.78;;;42.10;22.80;;;;;;6261903;28;20035;-78
2022/07/24 12:46:07;;;;;;;6.25;4.30;;;42.10;22.90;;;;;;6295334;28;20037;-77
2022/07/24 12:49:19;;;;;;;4.68;4.22;;;42.20;22.80;;;;;;6273286;28;20451;-78
2022/07/24 12:52:24;;;;;;;7.88;4.45;;;42.30;22.70;;;;;;6274427;28;20369;-77
2022/07/24 12:55:25;;;;;;;6.00;4.38;;;42.40;22.50;;;;;;6273655;28;20025;-77
2022/07/24 12:58:26;;;;;;;5.60;4.20;;;42.60;22.40;;;;;;6274128;28;20040;-77
2022/07/24 13:01:44;;;;;;;5.93;4.47;;;42.90;22.20;;;;;;6274400;28;20353;-76
2022/07/24 13:04:51;;;;;;;5.32;4.57;;;43.00;22.00;;;;;;6271453;28;20108;-77
2022/07/24 13:07:52;;;;;;;4.88;3.97;;;43.30;21.80;;;;;;6268492;28;20502;-77
2022/07/24 13:10:53;;;;;;;5.93;3.90;;;43.60;21.60;;;;;;6273073;28;20070;-77
2022/07/24 13:13:54;;;;;;;6.05;4.25;;;43.80;21.30;;;;;;6263904;28;20030;-77
2022/07/24 13:17:09;;;;;;;7.90;4.35;;;44.30;20.90;;;;;;6259765;28;20029;-77
2022/07/24 13:20:11;;;;;;;5.32;3.80;;;44.70;20.70;;;;;;6272847;28;20033;-77
2022/07/24 13:23:11;;;;;;;5.57;3.85;;;44.90;20.20;;;;;;6289072;28;20033;-76
2022/07/24 13:26:13;;;;;;;5.72;4.40;;;45.20;20.00;;;;;;6272297;28;20405;-77
2022/07/24 13:29:15;;;;;;;5.15;4.07;;;45.50;19.60;;;;;;6274204;28;20362;-76
2022/07/24 13:32:16;;;;;;;5.07;3.83;;;45.90;19.30;;;;;;6273430;28;20021;-76
2022/07/24 13:35:17;;;;;;;6.65;3.95;;;46.20;19.10;;;;;;6271134;28;20055;-77
2022/07/24 13:38:18;;;;;;;5.70;3.60;;;46.40;18.90;;;;;;6273032;28;20033;-77
2022/07/24 13:41:21;;;;;;;4.65;3.63;;;46.60;18.70;;;;;;6271475;28;20060;-76
2022/07/24 13:44:22;;;;;;;4.35;3.78;;;46.90;18.50;;;;;;6254078;28;20427;-77
2022/07/24 13:47:23;;;;;;;4.72;3.85;;;47.10;18.30;;;;;;6264510;28;20033;-76
2022/07/24 13:50:24;;;;;;;5.65;4.18;;;47.20;18.00;;;;;;6248411;28;20048;-78
2022/07/24 13:53:25;;;;;;;4.40;3.58;;;47.40;17.90;;;;;;6255155;28;20119;-78
2022/07/24 13:56:27;;;;;;;4.82;3.60;;;47.70;17.70;;;;;;6272775;28;20017;-80
2022/07/24 13:59:28;;;;;;;6.95;5.43;;;47.80;17.40;;;;;;6255798;28;20436;-79
2022/07/24 14:02:29;;;;;;;4.10;3.70;;;48.00;17.30;;;;;;6254977;28;20021;-79
2022/07/24 14:05:30;;;;;;;5.30;3.97;;;48.00;17.20;;;;;;6272472;28;20493;-79
2022/07/24 14:08:31;;;;;;;4.47;3.70;;;48.00;17.20;;;;;;6272704;28;20170;-79
2022/07/24 14:11:33;;;;;;;5.03;3.95;;;48.00;17.70;;;;;;6266674;28;20030;-78
2022/07/24 14:14:34;;;;;;;5.32;4.07;;;48.20;17.10;;;;;;6248045;28;20076;-79
2022/07/24 14:17:36;;;;;;;4.90;3.90;;;48.50;16.90;;;;;;6231675;28;20084;-79
2022/07/24 14:20:37;;;;;;;4.80;3.72;;;48.60;16.70;;;;;;6247968;28;20105;-81
2022/07/24 14:23:38;;;;;;;5.10;3.95;;;48.70;16.70;;;;;;6248740;28;20033;-80
2022/07/24 14:26:40;;;;;;;5.13;3.53;;;48.60;16.40;;;;;;6274715;28;20025;-80
2022/07/24 14:29:41;;;;;;;4.15;3.50;;;48.50;16.50;;;;;;6273128;28;20600;-80
2022/07/24 14:32:42;;;;;;;4.05;3.22;;;48.30;16.50;;;;;;6272780;28;20055;-81
2022/07/24 14:35:42;;;;;;;6.32;3.50;;;48.00;16.40;;;;;;6255914;28;20036;-80
2022/07/24 14:38:44;;;;;;;4.07;3.33;;;47.80;16.30;;;;;;6273834;28;20044;-80
2022/07/24 14:41:45;;;;;;;5.68;3.20;;;47.80;16.20;;;;;;6273294;28;20086;-80
2022/07/24 14:44:46;;;;;;;2.90;2.60;;;48.00;16.00;;;;;;6254992;28;20040;-79
2022/07/24 14:47:47;;;;;;;4.38;3.17;;;48.30;15.80;;;;;;6255721;28;20095;-79
2022/07/24 14:50:48;;;;;;;4.63;3.00;;;48.30;15.60;;;;;;6252516;28;20053;-79
2022/07/24 14:53:49;;;;;;;3.38;2.97;;;48.60;15.30;;;;;;6273023;28;20044;-79
2022/07/24 14:56:50;;;;;;;4.03;3.33;;;48.90;14.90;;;;;;6275658;28;20033;-80
2022/07/24 14:59:51;;;;;;;5.80;3.53;;;48.80;15.10;;;;;;6268268;28;20128;-76
2022/07/24 15:02:52;;;;;;;4.00;3.60;;;48.60;15.40;;;;;;6270463;28;20090;-77
2022/07/24 15:05:53;;;;;;;3.55;3.10;;;48.20;15.40;;;;;;6271600;28;20361;-76
2022/07/24 15:08:54;;;;;;;3.83;3.30;;;47.00;16.10;;;;;;6288647;28;20131;-78
2022/07/24 15:11:55;;;;;;;4.25;3.58;;;45.80;16.80;;;;;;6272311;28;20029;-79
2022/07/24 15:14:56;;;;;;;4.95;3.00;;;44.70;17.30;;;;;;6276326;28;20104;-79
2022/07/24 15:17:57;;;;;;;3.70;2.80;;;43.60;17.60;;;;;;6275015;28;20110;-79
2022/07/24 15:20:58;;;;;;;6.10;3.00;;;42.70;18.10;;;;;;6275607;28;20482;-74
2022/07/24 15:23:59;;;;;;;3.30;3.00;;;41.90;18.70;;;;;;6276838;28;20021;-74
2022/07/24 15:27:01;;;;;;;4.20;3.05;;;41.40;19.30;;;;;;6276073;28;20024;-74
2022/07/24 15:30:04;;;;;;;6.45;3.38;;;41.60;19.20;;;;;;6274794;28;20041;-75
2022/07/24 15:33:05;;;;;;;7.15;3.20;;;42.50;18.70;;;;;;6267539;28;20032;-75
2022/07/24 15:36:06;;;;;;;3.75;3.35;;;43.40;18.30;;;;;;6275816;28;20021;-75
2022/07/24 15:39:09;;;;;;;4.55;3.65;;;44.10;18.10;;;;;;6274163;28;20788;-75
2022/07/24 15:42:10;;;;;;;4.30;3.15;;;44.50;17.80;;;;;;6275389;28;20070;-75
2022/07/24 15:45:11;;;;;;;6.43;3.65;;;44.90;17.70;;;;;;6275505;28;20029;-76
2022/07/24 15:48:12;;;;;;;4.65;3.63;;;45.20;17.30;;;;;;6273673;28;20040;-75